Time;durP1;ratioP1;P1;durP2;ratioP2;P2;SDS_P1;SDS_P2;PMS_P1;PMS_P2;Temp;Humidity;BMP_temperature;BMP_pressure;BME280_temperature;BME280_humidity;BME280_pressure;Samples;Min_cycle;Max_cycle;Signal;HPM_P1;HPM_P2
2023/08/19 00:01:56;;;;;;;24.58;12.55;;;;;;;26.18;62.43;98208.19;4432476;32;20165;-82
2023/08/19 00:04:23;;;;;;;18.37;12.98;;;;;;;25.95;62.87;98202.66;4432993;32;20058;-81
2023/08/19 00:06:51;;;;;;;18.83;12.85;;;;;;;26.02;63.07;98202.81;4432895;32;20097;-81
2023/08/19 00:09:18;;;;;;;18.77;13.07;;;;;;;26.67;61.59;98205.66;4432836;32;20137;-82
2023/08/19 00:11:45;;;;;;;18.15;11.98;;;;;;;26.89;61.71;98204.19;4433614;32;20399;-81
2023/08/19 00:14:12;;;;;;;18.05;12.35;;;;;;;26.92;60.87;98201.25;4433465;32;20102;-81
2023/08/19 00:16:39;;;;;;;16.80;11.48;;;;;;;26.84;60.83;98207.34;4431987;32;20113;-81
2023/08/19 00:19:06;;;;;;;15.68;10.60;;;;;;;26.94;60.01;98207.19;4433247;32;20090;-82
2023/08/19 00:21:33;;;;;;;17.83;11.25;;;;;;;26.53;60.16;98202.69;4433362;32;20082;-81
2023/08/19 00:24:00;;;;;;;16.65;11.40;;;;;;;25.98;61.43;98202.31;4433212;32;20098;-82
2023/08/19 00:26:26;;;;;;;17.87;11.63;;;;;;;25.91;62.04;98199.47;4433799;32;20098;-82
2023/08/19 00:28:54;;;;;;;16.42;10.70;;;;;;;25.72;62.94;98197.06;4433636;32;20081;-81
2023/08/19 00:31:20;;;;;;;17.15;11.15;;;;;;;26.26;61.40;98200.25;4433355;32;20145;-82
2023/08/19 00:33:47;;;;;;;18.30;11.93;;;;;;;25.72;62.64;98204.97;4420217;32;20058;-82
2023/08/19 00:36:15;;;;;;;17.80;11.35;;;;;;;25.83;63.32;98206.53;4433967;32;20113;-81
2023/08/19 00:38:44;;;;;;;18.87;11.38;;;;;;;26.01;62.94;98211.75;4433953;32;20153;-82
2023/08/19 00:41:11;;;;;;;18.00;11.38;;;;;;;25.97;63.59;98215.69;4434457;32;20503;-81
2023/08/19 00:43:38;;;;;;;18.60;12.40;;;;;;;25.28;66.68;98226.16;4420512;32;20076;-82
2023/08/19 00:46:07;;;;;;;17.80;12.07;;;;;;;25.96;64.89;98214.88;4434065;32;20111;-81
2023/08/19 00:48:34;;;;;;;18.87;12.35;;;;;;;25.88;64.69;98226.22;4433706;32;20181;-81
2023/08/19 00:51:02;;;;;;;18.90;11.85;;;;;;;25.54;66.37;98230.63;4433502;32;20104;-82
2023/08/19 00:53:30;;;;;;;21.20;11.77;;;;;;;25.92;65.12;98222.28;4433984;32;20161;-81
2023/08/19 00:55:58;;;;;;;18.75;11.93;;;;;;;26.44;62.75;98226.63;4434059;32;20093;-81
2023/08/19 00:58:25;;;;;;;16.55;10.95;;;;;;;25.91;65.08;98217.97;4433477;32;20130;-82
2023/08/19 01:00:53;;;;;;;16.50;11.18;;;;;;;26.59;62.53;98222.38;4432526;32;20090;-81
2023/08/19 01:03:20;;;;;;;17.73;12.10;;;;;;;26.90;61.39;98225.22;4419255;32;20429;-81
2023/08/19 01:06:06;;;;;;;17.33;11.40;;;;;;;25.96;65.03;98222.81;4432483;32;20081;-82
2023/08/19 01:08:40;;;;;;;17.55;11.73;;;;;;;26.69;61.94;98228.34;4432857;32;20077;-81
2023/08/19 01:11:16;;;;;;;19.70;11.57;;;;;;;26.12;63.54;98214.09;4419568;32;20072;-81
2023/08/19 01:14:11;;;;;;;20.15;11.80;;;;;;;26.55;62.36;98220.22;4419366;32;20059;-82
2023/08/19 01:16:39;;;;;;;17.15;11.23;;;;;;;26.25;62.23;98222.41;4419908;32;20109;-80
2023/08/19 01:19:07;;;;;;;18.65;11.63;;;;;;;26.26;62.27;98231.97;4433146;32;20104;-82
2023/08/19 01:21:34;;;;;;;17.27;11.10;;;;;;;25.87;63.25;98221.09;4433032;32;20101;-81
2023/08/19 01:24:05;;;;;;;19.00;11.70;;;;;;;26.28;62.03;98226.56;4434119;32;20085;-81
2023/08/19 01:26:32;;;;;;;17.30;10.85;;;;;;;26.18;62.50;98224.87;4419579;32;20083;-82
2023/08/19 01:28:59;;;;;;;18.10;11.25;;;;;;;25.95;63.71;98218.50;4419625;32;20069;-81
2023/08/19 01:31:26;;;;;;;18.05;11.70;;;;;;;25.86;64.78;98222.09;4433722;32;20100;-81
2023/08/19 01:33:53;;;;;;;17.12;11.60;;;;;;;26.48;63.37;98223.50;4433743;32;20686;-82
2023/08/19 01:36:32;;;;;;;19.27;11.88;;;;;;;26.54;63.72;98222.03;4434255;32;20062;-81
2023/08/19 01:39:03;;;;;;;16.08;11.15;;;;;;;26.64;63.62;98228.00;4421663;32;20090;-81
2023/08/19 01:41:30;;;;;;;17.85;11.80;;;;;;;26.57;63.93;98220.88;4421725;32;20065;-82
2023/08/19 01:43:58;;;;;;;20.37;12.00;;;;;;;26.49;64.29;98213.75;4421226;32;20110;-81
2023/08/19 01:46:25;;;;;;;22.58;11.95;;;;;;;25.91;66.84;98207.41;4420698;32;20121;-81
2023/08/19 01:48:52;;;;;;;19.37;12.57;;;;;;;26.45;65.36;98207.94;4433530;32;20094;-82
2023/08/19 01:51:19;;;;;;;18.55;11.65;;;;;;;25.96;67.94;98212.22;4434286;32;20110;-81
2023/08/19 01:53:46;;;;;;;19.65;11.65;;;;;;;26.72;63.19;98209.50;4433536;32;20078;-82
2023/08/19 01:56:13;;;;;;;18.98;11.15;;;;;;;26.24;64.57;98205.69;4418959;32;20070;-81
2023/08/19 01:58:40;;;;;;;18.00;11.65;;;;;;;26.15;65.34;98205.84;4432985;32;20057;-81
2023/08/19 02:01:11;;;;;;;19.75;11.45;;;;;;;26.00;66.23;98202.97;4432734;32;20907;-82
2023/08/19 02:03:38;;;;;;;18.30;11.85;;;;;;;26.02;65.71;98205.47;4433093;32;20080;-81
2023/08/19 02:06:05;;;;;;;16.37;11.70;;;;;;;26.11;65.38;98204.50;4431520;32;20106;-81
2023/08/19 02:08:32;;;;;;;17.42;11.57;;;;;;;26.45;63.37;98205.28;4431315;32;20133;-82
2023/08/19 02:10:59;;;;;;;17.52;11.50;;;;;;;26.55;63.15;98213.09;4431848;32;20472;-81
2023/08/19 02:13:26;;;;;;;18.48;12.00;;;;;;;26.78;61.70;98208.81;4431125;32;20086;-81
2023/08/19 02:15:53;;;;;;;15.80;11.32;;;;;;;27.12;60.69;98221.12;4431790;32;20140;-81
2023/08/19 02:18:21;;;;;;;15.30;10.75;;;;;;;26.29;63.51;98223.75;4432500;32;20057;-82
2023/08/19 02:20:48;;;;;;;16.35;11.12;;;;;;;25.68;65.43;98220.31;4431991;32;20082;-81
2023/08/19 02:23:15;;;;;;;16.50;10.80;;;;;;;26.21;64.15;98213.12;4431709;32;20126;-82
2023/08/19 02:25:42;;;;;;;17.85;11.35;;;;;;;26.12;64.17;98207.00;4432316;32;20117;-81
2023/08/19 02:28:09;;;;;;;17.75;12.15;;;;;;;25.75;65.52;98212.63;4432288;32;20781;-81
2023/08/19 02:30:36;;;;;;;18.83;11.12;;;;;;;26.00;64.44;98204.78;4432651;32;20117;-82
2023/08/19 02:33:05;;;;;;;16.30;10.30;;;;;;;26.07;63.57;98198.72;4432502;32;20093;-81
2023/08/19 02:35:32;;;;;;;18.23;11.00;;;;;;;25.99;63.40;98203.16;4432556;32;20085;-81
2023/08/19 02:37:59;;;;;;;17.00;10.55;;;;;;;25.97;63.84;98198.03;4432248;32;20101;-82
2023/08/19 02:40:30;;;;;;;18.05;10.52;;;;;;;26.23;62.59;98203.22;4433431;32;20073;-81
2023/08/19 02:42:57;;;;;;;17.58;10.80;;;;;;;25.88;63.84;98193.69;4432207;32;20059;-82
2023/08/19 02:45:25;;;;;;;15.63;10.52;;;;;;;25.68;65.30;98208.91;4432543;32;20097;-81
2023/08/19 02:47:51;;;;;;;16.02;10.18;;;;;;;25.60;65.84;98198.28;4431877;32;20058;-81
2023/08/19 02:50:19;;;;;;;15.90;10.18;;;;;;;26.14;63.73;98191.78;4432220;32;20147;-82
2023/08/19 02:52:46;;;;;;;16.42;10.48;;;;;;;25.80;65.03;98189.19;4432664;32;20084;-81
2023/08/19 02:55:13;;;;;;;15.55;10.45;;;;;;;25.62;65.73;98191.84;4432419;32;20090;-79
2023/08/19 02:57:39;;;;;;;16.95;11.30;;;;;;;25.72;65.61;98190.94;4432407;32;20065;-82
2023/08/19 03:00:07;;;;;;;16.70;10.43;;;;;;;25.50;66.70;98185.19;4432883;32;20094;-81
2023/08/19 03:02:34;;;;;;;15.90;10.93;;;;;;;25.71;66.15;98187.47;4432830;32;20130;-81
2023/08/19 03:05:01;;;;;;;15.82;10.93;;;;;;;25.83;65.10;98180.09;4432300;32;20105;-82
2023/08/19 03:07:28;;;;;;;17.10;11.12;;;;;;;25.62;66.11;98175.16;4432793;32;20841;-81
2023/08/19 03:09:55;;;;;;;16.90;10.95;;;;;;;25.41;67.20;98180.81;4432450;32;20062;-81
2023/08/19 03:12:22;;;;;;;15.70;10.95;;;;;;;25.86;65.69;98175.34;4432186;32;20676;-82
2023/08/19 03:14:49;;;;;;;15.43;10.52;;;;;;;26.02;65.05;98171.91;4418475;32;20165;-81
2023/08/19 03:17:17;;;;;;;15.90;10.65;;;;;;;26.25;63.71;98170.34;4432229;32;20132;-81
2023/08/19 03:19:43;;;;;;;17.60;10.48;;;;;;;25.79;65.64;98169.03;4431876;32;20097;-82
2023/08/19 03:22:10;;;;;;;16.45;10.60;;;;;;;25.75;65.58;98170.34;4432061;32;20114;-81
2023/08/19 03:24:37;;;;;;;16.98;10.27;;;;;;;26.31;63.62;98178.63;4433010;32;20145;-82
2023/08/19 03:27:05;;;;;;;15.68;10.43;;;;;;;26.62;61.99;98176.25;4433502;32;20088;-81
2023/08/19 03:29:32;;;;;;;19.77;11.10;;;;;;;25.80;65.00;98177.78;4420256;32;20141;-81
2023/08/19 03:31:59;;;;;;;17.45;9.60;;;;;;;25.92;64.52;98173.84;4433302;32;20116;-82
2023/08/19 03:34:26;;;;;;;16.27;9.98;;;;;;;25.75;64.80;98174.78;4433085;32;20766;-81
2023/08/19 03:36:53;;;;;;;15.65;10.20;;;;;;;25.62;65.61;98176.00;4433121;32;20066;-81
2023/08/19 03:39:20;;;;;;;19.48;10.68;;;;;;;26.28;63.19;98184.25;4433041;32;20101;-82
2023/08/19 03:41:47;;;;;;;21.02;10.18;;;;;;;26.34;62.29;98176.47;4433751;32;20106;-81
2023/08/19 03:44:14;;;;;;;16.67;10.05;;;;;;;25.78;64.53;98185.03;4433857;32;20143;-81
2023/08/19 03:46:42;;;;;;;16.85;9.73;;;;;;;26.21;62.79;98186.69;4433896;32;20087;-81
2023/08/19 03:49:08;;;;;;;17.00;9.45;;;;;;;26.34;62.38;98186.22;4420323;32;20166;-81
2023/08/19 03:51:35;;;;;;;17.45;9.90;;;;;;;26.09;63.01;98194.09;4433407;32;20698;-81
2023/08/19 03:54:02;;;;;;;16.27;10.60;;;;;;;25.92;64.05;98202.94;4433114;32;20114;-82
2023/08/19 03:56:29;;;;;;;16.85;10.93;;;;;;;26.24;63.34;98210.16;4432914;32;20113;-81
2023/08/19 03:58:56;;;;;;;15.77;10.30;;;;;;;26.60;62.80;98213.44;4432688;32;20177;-81
2023/08/19 04:01:23;;;;;;;15.13;10.32;;;;;;;26.30;63.97;98208.72;4432639;32;20070;-82
2023/08/19 04:03:50;;;;;;;14.73;10.15;;;;;;;26.32;63.67;98204.91;4432847;32;20070;-82
2023/08/19 04:06:17;;;;;;;16.15;11.07;;;;;;;25.63;66.08;98204.09;4432634;32;20094;-81
2023/08/19 04:08:44;;;;;;;17.33;10.40;;;;;;;25.63;66.45;98205.91;4432017;32;20082;-82
2023/08/19 04:11:11;;;;;;;18.85;10.77;;;;;;;25.75;66.16;98209.97;4432499;32;20094;-82
2023/08/19 04:13:38;;;;;;;16.45;11.50;;;;;;;25.82;65.92;98215.44;4431114;32;20094;-81
2023/08/19 04:16:06;;;;;;;16.17;10.68;;;;;;;25.86;65.86;98215.00;4431668;32;20109;-81
2023/08/19 04:18:34;;;;;;;17.62;10.77;;;;;;;26.67;62.58;98213.59;4433031;32;20104;-81
2023/08/19 04:21:05;;;;;;;17.08;10.65;;;;;;;26.53;62.87;98226.50;4420063;32;20050;-81
2023/08/19 04:23:32;;;;;;;16.65;10.30;;;;;;;26.46;62.60;98230.75;4421293;32;20134;-81
2023/08/19 04:25:59;;;;;;;17.52;10.90;;;;;;;26.56;62.16;98230.63;4435024;32;20097;-81
2023/08/19 04:28:26;;;;;;;18.37;10.95;;;;;;;26.21;63.57;98229.00;4434639;32;20142;-82
2023/08/19 04:31:07;;;;;;;17.83;10.85;;;;;;;26.72;62.31;98224.56;4435472;32;20086;-81
2023/08/19 04:33:35;;;;;;;16.48;10.95;;;;;;;26.33;63.94;98237.47;4435762;32;20126;-81
2023/08/19 04:36:02;;;;;;;15.73;10.75;;;;;;;26.57;64.06;98239.38;4434267;32;20102;-81
2023/08/19 04:38:29;;;;;;;16.75;11.75;;;;;;;26.53;63.84;98239.72;4436062;32;20175;-81
2023/08/19 04:40:59;;;;;;;15.15;10.05;;;;;;;27.25;61.21;98241.81;4435999;32;20062;-81
2023/08/19 04:43:27;;;;;;;17.73;10.48;;;;;;;27.06;61.16;98243.81;4435970;32;20077;-82
2023/08/19 04:45:54;;;;;;;15.75;10.77;;;;;;;26.39;63.60;98234.22;4436437;32;20114;-81
2023/08/19 04:48:21;;;;;;;17.67;10.55;;;;;;;27.02;61.53;98241.66;4436618;32;20077;-81
2023/08/19 04:50:49;;;;;;;15.43;9.68;;;;;;;27.03;62.01;98245.97;4435844;32;20106;-82
2023/08/19 04:53:16;;;;;;;15.60;9.00;;;;;;;26.39;63.45;98240.34;4422761;32;20090;-81
2023/08/19 04:55:43;;;;;;;16.20;9.30;;;;;;;26.54;62.71;98240.53;4435868;32;20164;-81
2023/08/19 04:58:10;;;;;;;17.33;10.48;;;;;;;26.64;61.80;98238.59;4435872;32;20078;-82
2023/08/19 05:00:37;;;;;;;16.75;9.77;;;;;;;26.44;62.76;98247.78;4436198;32;20078;-81
2023/08/19 05:03:04;;;;;;;15.88;10.10;;;;;;;26.62;62.38;98256.44;4422356;32;20078;-81
2023/08/19 05:05:31;;;;;;;15.73;9.13;;;;;;;26.40;63.14;98246.47;4434916;32;20078;-81
2023/08/19 05:07:58;;;;;;;16.30;9.55;;;;;;;26.45;62.52;98252.09;4434720;32;20093;-81
2023/08/19 05:10:25;;;;;;;15.32;9.63;;;;;;;25.72;65.36;98255.19;4434587;32;20126;-82
2023/08/19 05:12:52;;;;;;;15.10;10.23;;;;;;;25.47;66.59;98256.00;4435735;32;20066;-81
2023/08/19 05:15:19;;;;;;;13.70;9.43;;;;;;;25.52;67.21;98254.56;4435924;32;20077;-81
2023/08/19 05:17:46;;;;;;;16.45;9.90;;;;;;;26.18;64.79;98253.97;4435345;32;20074;-82
2023/08/19 05:20:13;;;;;;;14.57;9.25;;;;;;;26.22;65.61;98252.66;4436053;32;20086;-81
2023/08/19 05:22:40;;;;;;;14.45;9.52;;;;;;;26.25;65.44;98256.78;4436416;32;20077;-81
2023/08/19 05:25:08;;;;;;;14.02;9.15;;;;;;;26.15;65.80;98266.66;4435833;32;20066;-82
2023/08/19 05:27:36;;;;;;;15.45;9.65;;;;;;;26.51;64.78;98264.69;4436242;32;20066;-81
2023/08/19 05:30:05;;;;;;;13.02;8.82;;;;;;;26.68;64.47;98270.84;4422841;32;20082;-81
2023/08/19 05:32:33;;;;;;;14.85;10.00;;;;;;;26.79;63.97;98263.41;4435105;32;20057;-82
2023/08/19 05:35:00;;;;;;;15.15;9.52;;;;;;;26.50;65.10;98277.09;4421009;32;20101;-82
2023/08/19 05:37:27;;;;;;;16.37;9.82;;;;;;;26.62;65.23;98290.03;4434007;32;20081;-81
2023/08/19 05:39:54;;;;;;;16.45;10.55;;;;;;;26.23;67.09;98301.91;4419614;32;20058;-82
2023/08/19 05:42:21;;;;;;;16.15;10.60;;;;;;;26.34;67.62;98321.12;4434137;32;20109;-81
2023/08/19 05:44:48;;;;;;;18.55;12.27;;;;;;;26.08;69.47;98316.72;4434901;32;20153;-81
2023/08/19 05:47:15;;;;;;;19.77;11.02;;;;;;;26.20;68.77;98323.38;4433272;32;20070;-81
2023/08/19 05:49:42;;;;;;;21.35;12.10;;;;;;;25.90;70.38;98329.97;4431863;32;20127;-81
2023/08/19 05:52:09;;;;;;;23.42;12.50;;;;;;;25.80;71.81;98346.94;4430185;32;20147;-81
2023/08/19 05:54:36;;;;;;;27.62;13.43;;;;;;;25.65;74.66;98346.63;4427490;32;20097;-81
2023/08/19 05:57:03;;;;;;;26.55;13.50;;;;;;;26.16;73.01;98345.03;4412899;32;20094;-81
2023/08/19 05:59:30;;;;;;;22.75;14.87;;;;;;;25.35;78.63;98342.56;4428250;32;20101;-81
2023/08/19 06:01:57;;;;;;;27.40;15.00;;;;;;;24.67;86.05;98344.78;4428079;32;20082;-81
2023/08/19 06:04:24;;;;;;;24.87;15.82;;;;;;;24.68;87.79;98357.03;4427086;32;20165;-81
2023/08/19 06:06:51;;;;;;;24.85;16.25;;;;;;;25.77;81.73;98355.16;4427001;32;20107;-81
2023/08/19 06:09:21;;;;;;;24.45;16.62;;;;;;;25.64;83.27;98360.81;4413666;32;20140;-81
2023/08/19 06:11:49;;;;;;;24.55;16.58;;;;;;;25.65;84.29;98357.19;4426853;32;20113;-81
2023/08/19 06:14:16;;;;;;;22.75;16.60;;;;;;;26.06;82.02;98361.00;4425963;32;20225;-81
2023/08/19 06:16:44;;;;;;;26.95;17.17;;;;;;;25.91;82.72;98363.34;4424887;32;20089;-81
2023/08/19 06:19:11;;;;;;;25.20;17.30;;;;;;;26.62;78.89;98364.13;4412584;32;20058;-81
2023/08/19 06:21:39;;;;;;;25.10;16.85;;;;;;;27.19;75.96;98359.84;4425658;32;20175;-81
2023/08/19 06:24:07;;;;;;;23.62;16.58;;;;;;;26.83;78.37;98361.06;4426264;32;20727;-82
2023/08/19 06:26:34;;;;;;;25.90;16.30;;;;;;;27.67;74.40;98375.00;4425885;32;20100;-81
2023/08/19 06:29:00;;;;;;;23.27;15.82;;;;;;;28.25;70.03;98368.63;4425545;32;20169;-82
2023/08/19 06:31:28;;;;;;;24.23;15.95;;;;;;;27.67;73.38;98363.56;4412462;32;20089;-81
2023/08/19 06:33:55;;;;;;;25.10;16.20;;;;;;;27.57;73.55;98368.19;4425857;32;20441;-81
2023/08/19 06:36:28;;;;;;;22.20;15.93;;;;;;;27.75;72.14;98360.06;4425736;32;20111;-81
2023/08/19 06:39:16;;;;;;;25.08;15.98;;;;;;;27.29;73.92;98360.53;4412778;32;20476;-81
2023/08/19 06:41:46;;;;;;;24.67;16.23;;;;;;;27.33;75.39;98353.94;4426416;32;20133;-82
2023/08/19 06:44:13;;;;;;;27.10;17.10;;;;;;;27.28;76.27;98353.56;4413001;32;20113;-81
2023/08/19 06:46:42;;;;;;;26.02;16.45;;;;;;;27.33;75.75;98350.44;4426766;32;20156;-81
2023/08/19 06:49:09;;;;;;;24.45;15.95;;;;;;;27.09;78.69;98354.69;4412395;32;20086;-82
2023/08/19 06:51:36;;;;;;;24.83;16.12;;;;;;;27.08;77.09;98363.63;4426462;32;20101;-81
2023/08/19 06:54:04;;;;;;;24.40;16.77;;;;;;;27.52;74.87;98371.31;4426698;32;20168;-81
2023/08/19 06:57:02;;;;;;;24.85;17.02;;;;;;;26.67;80.33;98378.53;4426242;32;20089;-81
2023/08/19 06:59:38;;;;;;;24.45;16.87;;;;;;;27.15;78.05;98373.59;4417246;32;20138;-82
2023/08/19 07:02:06;;;;;;;22.37;16.77;;;;;;;27.16;77.91;98376.06;4428674;32;20118;-81
2023/08/19 07:04:35;;;;;;;23.98;16.15;;;;;;;27.61;75.05;98377.44;4428200;32;20062;-82
2023/08/19 07:07:04;;;;;;;23.40;16.15;;;;;;;27.18;76.48;98376.72;4428567;32;20094;-81
2023/08/19 07:09:33;;;;;;;23.55;14.07;;;;;;;26.71;78.95;98382.53;4428517;32;20096;-82
2023/08/19 07:12:01;;;;;;;23.00;15.88;;;;;;;27.96;71.91;98373.62;4428864;32;20177;-81
2023/08/19 07:14:29;;;;;;;23.23;15.73;;;;;;;26.13;81.95;98380.53;4429004;32;20086;-81
2023/08/19 07:16:59;;;;;;;24.00;16.00;;;;;;;26.78;80.24;98386.19;4428375;32;20081;-81
2023/08/19 07:19:30;;;;;;;25.20;16.80;;;;;;;26.60;79.88;98381.97;4428829;32;20076;-81
2023/08/19 07:21:57;;;;;;;25.90;18.35;;;;;;;25.90;84.46;98379.38;4416106;32;20108;-81
2023/08/19 07:24:25;;;;;;;30.30;19.23;;;;;;;25.25;90.61;98386.72;4429993;32;20062;-82
2023/08/19 07:26:52;;;;;;;25.90;19.10;;;;;;;25.43;90.57;98390.19;4430088;32;20076;-81
2023/08/19 07:29:19;;;;;;;28.80;18.98;;;;;;;25.75;87.76;98402.91;4429755;32;20086;-81
2023/08/19 07:31:47;;;;;;;28.40;19.35;;;;;;;25.85;87.21;98416.03;4429727;32;20098;-82
2023/08/19 07:34:14;;;;;;;26.52;18.77;;;;;;;25.32;92.32;98414.19;4429829;32;20118;-81
2023/08/19 07:36:42;;;;;;;25.60;18.12;;;;;;;25.53;90.65;98416.53;4429730;32;20085;-81
2023/08/19 07:39:09;;;;;;;26.65;19.17;;;;;;;;;;4428892;32;20108;-82
2023/08/19 07:41:35;;;;;;;29.25;18.27;;;;;;;25.34;90.92;98428.91;4429497;32;20097;-81
2023/08/19 07:44:03;;;;;;;26.55;18.92;;;;;;;25.78;89.11;98429.03;4429667;32;20150;-81
2023/08/19 07:46:30;;;;;;;27.48;17.33;;;;;;;26.07;86.92;98433.22;4429298;32;20089;-81
2023/08/19 07:48:57;;;;;;;27.23;17.55;;;;;;;26.72;83.19;98423.87;4430184;32;20058;-81
2023/08/19 07:51:25;;;;;;;24.30;17.60;;;;;;;25.91;84.79;98424.16;4429983;32;20109;-81
2023/08/19 07:53:51;;;;;;;26.85;17.37;;;;;;;25.95;85.85;98422.06;4429674;32;20750;-82
2023/08/19 07:56:19;;;;;;;24.23;17.17;;;;;;;26.31;83.19;98427.25;4430162;32;20153;-81
2023/08/19 07:58:46;;;;;;;24.58;16.85;;;;;;;26.44;80.66;98425.06;4430256;32;20094;-82
2023/08/19 08:01:13;;;;;;;25.10;17.35;;;;;;;25.92;82.34;98417.06;4430231;32;20141;-81
2023/08/19 08:03:40;;;;;;;28.62;17.85;;;;;;;24.96;86.41;98421.19;4430273;32;20093;-82
2023/08/19 08:06:07;;;;;;;25.52;18.75;;;;;;;25.52;85.64;98415.72;4430260;32;20097;-83
2023/08/19 08:08:34;;;;;;;25.23;17.45;;;;;;;26.24;82.74;98411.16;4430586;32;20133;-82
2023/08/19 08:11:02;;;;;;;25.25;16.75;;;;;;;26.79;78.83;98401.06;4430761;32;20165;-82
2023/08/19 08:13:30;;;;;;;26.02;17.58;;;;;;;27.00;77.33;98405.94;4430513;32;20097;-82
2023/08/19 08:15:58;;;;;;;27.15;18.12;;;;;;;26.37;79.10;98416.94;4430746;32;20073;-81
2023/08/19 08:18:26;;;;;;;25.25;17.50;;;;;;;26.19;81.21;98421.41;4419917;32;20078;-81
2023/08/19 08:20:53;;;;;;;27.87;18.95;;;;;;;25.67;84.21;98408.06;4415813;32;20097;-82
2023/08/19 08:23:20;;;;;;;27.60;18.05;;;;;;;25.57;86.61;98409.97;4415420;32;20105;-81
2023/08/19 08:25:48;;;;;;;26.12;16.37;;;;;;;26.33;82.38;98423.47;4415523;32;20066;-81
2023/08/19 08:28:15;;;;;;;24.12;16.73;;;;;;;26.41;79.62;98428.03;4414965;32;20086;-82
2023/08/19 08:30:41;;;;;;;23.48;16.35;;;;;;;26.62;79.53;98423.19;4414310;32;20148;-81
2023/08/19 08:33:08;;;;;;;24.90;16.50;;;;;;;26.75;77.34;98423.56;4415096;32;20089;-81
2023/08/19 08:35:35;;;;;;;24.87;15.30;;;;;;;26.36;80.00;98417.84;4415066;32;20461;-81
2023/08/19 08:38:03;;;;;;;23.80;16.77;;;;;;;26.96;76.12;98417.03;4415796;32;20062;-82
2023/08/19 08:40:33;;;;;;;26.08;17.62;;;;;;;26.43;78.47;98412.81;4402415;32;20752;-81
2023/08/19 08:43:02;;;;;;;26.25;17.20;;;;;;;27.05;75.85;98397.56;4401598;32;20074;-83
2023/08/19 08:45:31;;;;;;;24.37;16.65;;;;;;;26.06;79.94;98397.19;4401678;32;20067;-81
2023/08/19 08:48:00;;;;;;;22.42;16.48;;;;;;;26.94;75.69;98396.00;4401916;32;20073;-83
2023/08/19 08:50:28;;;;;;;25.08;16.15;;;;;;;26.24;77.47;98395.31;4415792;32;20080;-81
2023/08/19 08:52:56;;;;;;;22.70;15.68;;;;;;;26.64;75.68;98400.03;4416087;32;20150;-82
2023/08/19 08:55:23;;;;;;;25.40;17.90;;;;;;;26.60;77.44;98396.03;4415410;32;20157;-81
2023/08/19 08:57:50;;;;;;;29.30;17.83;;;;;;;26.95;75.81;98391.53;4415840;32;20082;-82
2023/08/19 09:00:18;;;;;;;27.65;18.85;;;;;;;27.06;75.87;98386.81;4416204;32;20125;-82
2023/08/19 09:02:46;;;;;;;25.23;16.87;;;;;;;26.58;75.82;98397.16;4415583;32;20102;-82
2023/08/19 09:05:15;;;;;;;29.55;18.87;;;;;;;26.89;74.95;98394.81;4415530;32;20425;-82
2023/08/19 09:07:43;;;;;;;27.45;18.60;;;;;;;26.81;77.45;98388.53;4402089;32;20104;-82
2023/08/19 09:10:13;;;;;;;28.62;19.83;;;;;;;27.25;73.20;98385.69;4401761;32;20117;-83
2023/08/19 09:12:46;;;;;;;28.27;19.95;;;;;;;26.56;77.41;98388.56;4415531;32;20148;-82
2023/08/19 09:15:13;;;;;;;28.25;20.50;;;;;;;27.30;73.50;98377.25;4401764;32;20190;-82
2023/08/19 09:17:41;;;;;;;29.90;21.20;;;;;;;27.64;71.49;98371.81;4401200;32;20097;-82
2023/08/19 09:20:09;;;;;;;28.48;20.62;;;;;;;26.84;74.10;98360.91;4414834;32;20120;-82
2023/08/19 09:22:42;;;;;;;28.42;19.73;;;;;;;27.32;72.12;98357.53;4413942;32;20066;-82
2023/08/19 09:25:14;;;;;;;27.25;19.73;;;;;;;26.84;74.94;98358.25;4414587;32;20132;-82
2023/08/19 09:27:41;;;;;;;26.35;18.77;;;;;;;27.01;73.01;98367.03;4413833;32;20050;-82
2023/08/19 09:30:08;;;;;;;28.73;19.10;;;;;;;27.85;67.94;98372.16;4414171;32;20136;-83
2023/08/19 09:32:36;;;;;;;26.95;19.35;;;;;;;29.52;61.36;98374.72;4400737;32;20161;-82
2023/08/19 09:35:09;;;;;;;25.35;18.73;;;;;;;29.26;61.63;98370.56;4414293;32;20054;-83
2023/08/19 09:37:37;;;;;;;28.20;19.08;;;;;;;29.22;62.21;98376.38;4413998;32;20111;-83
2023/08/19 09:40:10;;;;;;;25.20;18.62;;;;;;;29.88;58.88;98380.22;4414449;32;20112;-82
2023/08/19 09:42:39;;;;;;;24.90;18.37;;;;;;;30.38;55.67;98386.75;4415399;32;20094;-82
2023/08/19 09:45:07;;;;;;;23.92;17.60;;;;;;;31.36;52.77;98384.53;4415045;32;20069;-83
2023/08/19 09:47:51;;;;;;;25.33;18.83;;;;;;;30.94;53.92;98395.91;4415134;32;20116;-82
2023/08/19 09:50:20;;;;;;;28.12;18.37;;;;;;;31.06;54.45;98398.94;4415303;32;20089;-82
2023/08/19 09:52:55;;;;;;;27.23;19.70;;;;;;;31.44;52.28;98402.25;4415157;32;20104;-83
2023/08/19 09:55:23;;;;;;;24.17;18.98;;;;;;;31.41;52.26;98407.97;4402485;32;20070;-82
2023/08/19 09:57:50;;;;;;;26.75;19.15;;;;;;;31.85;51.03;98402.47;4415997;32;20073;-82
2023/08/19 10:00:17;;;;;;;25.15;18.48;;;;;;;32.28;49.99;98412.22;4415932;32;20770;-82
2023/08/19 10:02:44;;;;;;;25.62;18.30;;;;;;;31.84;51.35;98397.31;4416288;32;20102;-83
2023/08/19 10:05:11;;;;;;;23.98;18.48;;;;;;;32.47;49.05;98407.06;4415807;32;20086;-83
2023/08/19 10:07:42;;;;;;;25.60;19.27;;;;;;;32.05;50.56;98402.63;4415223;32;20153;-82
2023/08/19 10:10:11;;;;;;;30.75;19.50;;;;;;;32.00;51.13;98406.88;4415997;32;20823;-83
2023/08/19 10:12:40;;;;;;;23.15;17.95;;;;;;;31.95;52.07;98410.97;4415332;32;20162;-83
2023/08/19 10:15:08;;;;;;;26.33;18.90;;;;;;;31.44;53.26;98404.91;4416024;32;20786;-82
2023/08/19 10:17:36;;;;;;;27.15;17.87;;;;;;;29.36;60.17;98403.06;4401881;32;20054;-82
2023/08/19 10:20:06;;;;;;;23.60;18.23;;;;;;;30.68;56.12;98396.41;4402669;32;20098;-83
2023/08/19 10:22:35;;;;;;;24.10;17.52;;;;;;;31.28;53.78;98403.34;4416963;32;20102;-83
2023/08/19 10:25:04;;;;;;;25.00;18.65;;;;;;;32.10;51.84;98407.37;4418212;32;20066;-83
2023/08/19 10:27:31;;;;;;;24.02;17.85;;;;;;;32.92;49.58;98412.84;4417900;32;20728;-84
2023/08/19 10:29:58;;;;;;;23.40;16.12;;;;;;;33.29;48.40;98405.38;4418258;32;20098;-83
2023/08/19 10:32:30;;;;;;;20.92;16.12;;;;;;;34.00;46.03;98404.88;4417618;32;20066;-83
2023/08/19 10:35:09;;;;;;;24.10;17.25;;;;;;;33.56;45.86;98415.13;4418565;32;20069;-84
2023/08/19 10:37:48;;;;;;;23.08;17.23;;;;;;;33.57;46.50;98410.59;4418653;32;20086;-83
2023/08/19 10:40:24;;;;;;;20.77;14.20;;;;;;;34.25;46.36;98408.59;4417721;32;20066;-84
2023/08/19 10:42:59;;;;;;;19.33;15.23;;;;;;;33.03;47.16;98417.63;4418328;32;20058;-83
2023/08/19 10:45:33;;;;;;;20.08;15.05;;;;;;;33.84;45.27;98411.47;4418938;32;20082;-83
2023/08/19 10:48:00;;;;;;;21.05;14.15;;;;;;;34.42;46.56;98411.66;4406081;32;20066;-84
2023/08/19 10:50:27;;;;;;;22.45;16.58;;;;;;;33.92;44.67;98411.25;4420999;32;20063;-84
2023/08/19 10:53:03;;;;;;;22.58;16.15;;;;;;;32.91;49.41;98413.88;4421425;32;20070;-83
2023/08/19 10:55:55;;;;;;;20.30;14.30;;;;;;;32.45;50.31;98414.44;4420357;32;20112;-83
2023/08/19 10:58:22;;;;;;;15.55;9.90;;;;;;;32.88;47.98;98406.28;4420162;32;20072;-83
2023/08/19 11:00:49;;;;;;;17.45;11.27;;;;;;;32.12;48.84;98410.69;4419936;32;20087;-83
2023/08/19 11:03:17;;;;;;;17.58;12.15;;;;;;;31.67;49.32;98407.37;4419328;32;20112;-83
2023/08/19 11:05:51;;;;;;;18.05;12.43;;;;;;;31.17;52.26;98398.47;4420012;32;20148;-83
2023/08/19 11:08:18;;;;;;;16.45;11.35;;;;;;;31.38;52.57;98401.19;4418221;32;20066;-83
2023/08/19 11:10:46;;;;;;;15.70;11.23;;;;;;;31.63;50.29;98398.97;4417861;32;20154;-83
2023/08/19 11:13:14;;;;;;;18.23;10.93;;;;;;;31.89;49.56;98405.56;4417309;32;20094;-83
2023/08/19 11:15:42;;;;;;;22.75;14.05;;;;;;;32.29;48.61;98401.37;4417985;32;20160;-83
2023/08/19 11:18:09;;;;;;;18.33;12.98;;;;;;;30.97;53.91;98402.72;4414368;32;140341;-83
2023/08/19 11:20:36;;;;;;;20.50;12.00;;;;;;;30.97;51.04;98408.06;4418546;32;20062;-83
2023/08/19 11:23:03;;;;;;;18.55;11.93;;;;;;;31.52;50.01;98406.66;4417972;32;20105;-84
2023/08/19 11:25:37;;;;;;;17.65;11.12;;;;;;;31.78;50.25;98400.75;4419535;32;20105;-83